createdAt,value
2018-07-20T00:01:08.072Z,3.00
2018-07-20T00:03:36.147Z,2.80
2018-07-20T00:06:04.180Z,2.98
2018-07-20T00:08:32.352Z,3.20
2018-07-20T00:11:00.356Z,2.90
2018-07-20T00:13:28.195Z,2.90
2018-07-20T00:15:56.247Z,2.67
2018-07-20T00:18:24.644Z,3.05
2018-07-20T00:20:52.668Z,2.62
2018-07-20T00:23:20.707Z,2.70
2018-07-20T00:25:48.708Z,2.50
2018-07-20T00:28:16.717Z,2.75
2018-07-20T00:30:45.859Z,2.70
2018-07-20T00:33:13.876Z,2.85
2018-07-20T00:35:41.923Z,2.90
2018-07-20T00:38:09.937Z,2.90
2018-07-20T00:40:37.939Z,2.70
2018-07-20T00:43:05.974Z,2.75
2018-07-20T00:45:34.033Z,2.85
2018-07-20T00:48:02.056Z,2.80
2018-07-20T00:50:30.080Z,3.00
2018-07-20T00:52:58.088Z,2.62
2018-07-20T00:55:26.139Z,2.77
2018-07-20T00:57:54.491Z,2.85
2018-07-20T01:00:22.501Z,2.60
2018-07-20T01:02:50.552Z,2.40
2018-07-20T01:05:18.604Z,3.05
2018-07-20T01:07:46.628Z,3.00
2018-07-20T01:10:14.667Z,3.10
2018-07-20T01:12:42.688Z,2.80
2018-07-20T01:15:10.728Z,3.20
2018-07-20T01:17:38.836Z,3.40
2018-07-20T01:20:07.434Z,2.80
2018-07-20T01:22:35.516Z,2.80
2018-07-20T01:25:03.581Z,3.20
2018-07-20T01:27:31.620Z,2.73
2018-07-20T01:29:59.664Z,2.80
2018-07-20T01:32:27.735Z,2.80
2018-07-20T01:34:55.772Z,2.98
2018-07-20T01:37:23.801Z,3.00
2018-07-20T01:39:51.875Z,3.10
2018-07-20T01:42:19.912Z,3.10
2018-07-20T01:44:47.951Z,2.98
2018-07-20T01:47:16.008Z,3.20
2018-07-20T01:49:44.044Z,3.10
2018-07-20T01:52:12.084Z,3.45
2018-07-20T01:54:40.146Z,3.05
2018-07-20T01:57:08.198Z,2.92
2018-07-20T01:59:36.255Z,3.02
2018-07-20T02:02:04.292Z,3.50
2018-07-20T02:04:32.300Z,3.17
2018-07-20T02:07:00.325Z,3.35
2018-07-20T02:09:28.356Z,3.50
2018-07-20T02:11:56.203Z,2.98
2018-07-20T02:14:24.212Z,3.45
2018-07-20T02:16:52.237Z,3.53
2018-07-20T02:19:20.273Z,3.40
2018-07-20T02:21:48.308Z,3.30
2018-07-20T02:24:16.360Z,3.20
2018-07-20T02:26:44.612Z,3.45
2018-07-20T02:29:12.731Z,3.35
2018-07-20T02:31:40.747Z,3.75
2018-07-20T02:34:09.060Z,3.90
2018-07-20T02:36:37.140Z,3.40
2018-07-20T02:39:08.778Z,3.45
2018-07-20T02:41:36.796Z,3.30
2018-07-20T02:44:04.848Z,3.85
2018-07-20T02:46:32.860Z,3.72
2018-07-20T02:49:00.874Z,3.40
2018-07-20T02:51:28.899Z,3.85
2018-07-20T02:53:56.916Z,3.77
2018-07-20T02:56:24.961Z,3.30
2018-07-20T02:58:52.984Z,3.90
2018-07-20T03:01:21.023Z,3.60
2018-07-20T03:03:49.048Z,3.80
2018-07-20T03:06:17.096Z,3.37
2018-07-20T03:08:45.121Z,4.00
2018-07-20T03:11:13.144Z,3.83
2018-07-20T03:13:41.173Z,4.12
2018-07-20T03:16:09.231Z,4.20
2018-07-20T03:18:37.067Z,4.22
2018-07-20T03:21:05.174Z,4.35
2018-07-20T03:23:33.427Z,4.30
2018-07-20T03:26:01.492Z,4.22
2018-07-20T03:28:29.516Z,4.45
2018-07-20T03:30:57.567Z,3.90
2018-07-20T03:33:25.581Z,4.78
2018-07-20T03:35:53.624Z,4.70
2018-07-20T03:38:21.664Z,4.53
2018-07-20T03:40:49.719Z,4.47
2018-07-20T03:43:17.749Z,4.30
2018-07-20T03:45:45.799Z,4.60
2018-07-20T03:48:13.841Z,4.00
2018-07-20T03:50:41.916Z,4.80
2018-07-20T03:53:09.933Z,4.75
2018-07-20T03:55:37.980Z,4.70
2018-07-20T03:58:06.072Z,4.10
2018-07-20T04:00:34.099Z,4.40
2018-07-20T04:03:01.931Z,4.10
2018-07-20T04:05:29.960Z,4.90
2018-07-20T04:07:58.008Z,4.30
2018-07-20T04:10:26.036Z,4.58
2018-07-20T04:12:54.115Z,5.20
2018-07-20T04:15:22.201Z,4.90
2018-07-20T04:17:50.256Z,4.72
2018-07-20T04:20:18.308Z,4.40
2018-07-20T04:22:46.352Z,4.33
2018-07-20T04:25:14.412Z,4.70
2018-07-20T04:27:42.447Z,4.50
2018-07-20T04:30:12.864Z,3.85
2018-07-20T04:32:40.932Z,4.40
2018-07-20T04:35:09.603Z,4.20
2018-07-20T04:37:37.644Z,4.62
2018-07-20T04:40:05.845Z,4.00
2018-07-20T04:42:34.101Z,4.03
2018-07-20T04:45:02.145Z,4.20
2018-07-20T04:47:29.982Z,4.17
2018-07-20T04:49:58.059Z,4.20
2018-07-20T04:52:26.100Z,3.95
2018-07-20T04:54:54.196Z,4.50
2018-07-20T04:57:22.355Z,4.22
2018-07-20T04:59:50.399Z,4.10
2018-07-20T05:02:18.603Z,4.30
2018-07-20T05:04:46.657Z,4.80
2018-07-20T05:07:14.731Z,4.55
2018-07-20T05:09:42.740Z,4.20
2018-07-20T05:12:10.776Z,4.53
2018-07-20T05:14:38.804Z,4.40
2018-07-20T05:17:06.855Z,4.40
2018-07-20T05:19:34.884Z,4.30
2018-07-20T05:22:02.917Z,5.03
2018-07-20T05:24:30.928Z,4.17
2018-07-20T05:26:58.981Z,4.40
2018-07-20T05:29:27.011Z,8.18
2018-07-20T05:31:54.843Z,3.80
2018-07-20T05:34:22.887Z,4.08
2018-07-20T05:36:50.900Z,3.85
2018-07-20T05:39:18.928Z,5.20
2018-07-20T05:41:46.936Z,3.30
2018-07-20T05:44:14.971Z,3.20
2018-07-20T05:46:43.008Z,3.10
2018-07-20T05:49:11.035Z,3.30
2018-07-20T05:51:39.085Z,3.57
2018-07-20T05:54:07.084Z,2.40
2018-07-20T05:56:35.135Z,3.67
2018-07-20T05:59:03.176Z,2.33
2018-07-20T06:01:31.216Z,2.17
2018-07-20T06:03:59.285Z,9.80
2018-07-20T06:06:27.324Z,4.03
2018-07-20T06:08:55.564Z,3.05
2018-07-20T06:11:23.612Z,2.35
2018-07-20T06:13:51.938Z,2.55
2018-07-20T06:16:19.972Z,2.20
2018-07-20T06:18:48.045Z,1.90
2018-07-20T06:21:16.084Z,2.42
2018-07-20T06:23:44.140Z,1.73
2018-07-20T06:26:12.133Z,3.40
2018-07-20T06:28:40.153Z,1.90
2018-07-20T06:31:08.193Z,1.90
2018-07-20T06:33:36.251Z,1.60
2018-07-20T06:36:04.261Z,2.12
2018-07-20T06:38:32.288Z,1.70
2018-07-20T06:41:00.312Z,1.80
2018-07-20T06:43:28.375Z,2.27
2018-07-20T06:45:56.443Z,2.20
2018-07-20T06:48:24.512Z,1.60
2018-07-20T06:50:52.539Z,2.50
2018-07-20T06:53:20.573Z,2.70
2018-07-20T06:55:48.648Z,1.50
2018-07-20T06:58:16.652Z,1.30
2018-07-20T07:00:44.693Z,1.50
2018-07-20T07:03:12.520Z,1.30
2018-07-20T07:05:40.575Z,1.30
2018-07-20T07:08:08.644Z,2.10
2018-07-20T07:10:36.676Z,1.60
2018-07-20T07:13:04.796Z,1.90
2018-07-20T07:15:32.829Z,1.40
2018-07-20T07:18:00.878Z,1.53
2018-07-20T07:20:28.951Z,1.53
2018-07-20T07:22:56.969Z,1.20
2018-07-20T07:25:25.016Z,1.20
2018-07-20T07:27:53.052Z,0.98
2018-07-20T07:30:21.092Z,1.27
2018-07-20T07:32:49.192Z,1.30
2018-07-20T07:35:17.247Z,1.60
2018-07-20T07:37:45.269Z,1.50
2018-07-20T07:40:13.292Z,1.10
2018-07-20T07:42:41.328Z,3.27
2018-07-20T07:45:09.377Z,1.80
2018-07-20T07:47:37.427Z,1.00
2018-07-20T07:50:05.243Z,1.20
2018-07-20T07:52:33.256Z,1.00
2018-07-20T07:55:01.273Z,1.30
2018-07-20T07:57:29.300Z,1.20
2018-07-20T07:59:57.112Z,2.35
2018-07-20T08:02:25.143Z,4.00
2018-07-20T08:04:53.201Z,1.70
2018-07-20T08:07:21.256Z,1.77
2018-07-20T08:09:49.328Z,3.00
2018-07-20T08:12:17.388Z,3.50
2018-07-20T08:14:45.435Z,1.67
2018-07-20T08:17:13.472Z,2.60
2018-07-20T08:19:41.540Z,3.27
2018-07-20T08:22:09.581Z,5.70
2018-07-20T08:24:37.611Z,2.30
2018-07-20T08:27:05.650Z,1.20
2018-07-20T08:29:33.702Z,1.90
2018-07-20T08:32:01.749Z,1.03
2018-07-20T08:34:29.819Z,1.30
2018-07-20T08:36:57.855Z,1.40
2018-07-20T08:39:25.884Z,1.10
2018-07-20T08:41:53.917Z,1.20
2018-07-20T08:44:21.960Z,1.40
2018-07-20T08:46:49.971Z,1.20
2018-07-20T08:49:17.999Z,1.00
2018-07-20T08:51:46.044Z,1.62
2018-07-20T08:54:13.868Z,1.10
2018-07-20T08:56:41.993Z,2.12
2018-07-20T08:59:10.030Z,1.02
2018-07-20T09:01:38.075Z,1.30
2018-07-20T09:04:06.092Z,1.75
2018-07-20T09:06:34.124Z,2.33
2018-07-20T09:09:02.163Z,1.40
2018-07-20T09:11:30.201Z,1.60
2018-07-20T09:13:58.091Z,2.40
2018-07-20T09:16:25.883Z,1.70
2018-07-20T09:18:53.921Z,1.37
2018-07-20T09:21:21.955Z,1.50
2018-07-20T09:23:49.791Z,1.50
2018-07-20T09:26:17.820Z,1.80
2018-07-20T09:28:45.948Z,1.65
2018-07-20T09:31:13.979Z,1.50
2018-07-20T09:33:42.040Z,1.50
2018-07-20T09:36:10.069Z,1.47
2018-07-20T09:38:38.104Z,1.60
2018-07-20T09:41:06.135Z,2.53
2018-07-20T09:43:34.229Z,2.43
2018-07-20T09:46:02.252Z,1.92
2018-07-20T09:48:30.287Z,2.10
2018-07-20T09:50:58.319Z,1.60
2018-07-20T09:53:26.356Z,1.90
2018-07-20T09:55:54.399Z,1.80
2018-07-20T09:58:22.459Z,16.50
2018-07-20T10:00:51.481Z,4.20
2018-07-20T10:03:20.496Z,4.00
2018-07-20T10:05:48.944Z,2.40
2018-07-20T10:08:18.051Z,3.00
2018-07-20T10:10:46.308Z,3.27
2018-07-20T10:13:14.352Z,2.22
2018-07-20T10:15:42.401Z,1.80
2018-07-20T10:18:10.452Z,1.90
2018-07-20T10:20:38.496Z,2.90
2018-07-20T10:23:06.532Z,2.10
2018-07-20T10:25:34.597Z,2.15
2018-07-20T10:28:02.912Z,2.40
2018-07-20T10:30:31.381Z,2.92
2018-07-20T10:32:59.568Z,2.40
2018-07-20T10:35:27.699Z,2.73
2018-07-20T10:37:55.760Z,2.17
2018-07-20T10:40:26.856Z,2.60
2018-07-20T10:42:56.336Z,4.75
2018-07-20T10:45:24.612Z,2.60
2018-07-20T10:47:52.660Z,1.80
2018-07-20T10:50:20.724Z,2.52
2018-07-20T10:52:48.748Z,1.98
2018-07-20T10:55:17.131Z,10.30
2018-07-20T10:57:45.284Z,2.90
2018-07-20T11:00:13.352Z,3.17
2018-07-20T11:02:41.386Z,1.80
2018-07-20T11:05:09.472Z,1.70
2018-07-20T11:07:37.537Z,1.95
2018-07-20T11:10:06.019Z,2.90
2018-07-20T11:12:34.247Z,2.40
2018-07-20T11:15:02.285Z,2.33
2018-07-20T11:17:30.313Z,2.02
2018-07-20T11:19:58.352Z,1.90
2018-07-20T11:22:26.379Z,2.30
2018-07-20T11:24:54.431Z,1.90
2018-07-20T11:27:22.452Z,2.05
2018-07-20T11:29:50.492Z,2.52
2018-07-20T11:32:18.546Z,2.77
2018-07-20T11:34:46.649Z,2.50
2018-07-20T11:37:14.614Z,1.80
2018-07-20T11:39:42.657Z,2.42
2018-07-20T11:42:10.854Z,3.30
2018-07-20T11:44:38.884Z,2.40
2018-07-20T11:47:06.912Z,3.12
2018-07-20T11:49:34.951Z,2.50
2018-07-20T11:52:02.976Z,3.62
2018-07-20T11:54:31.043Z,3.20
2018-07-20T11:56:59.156Z,3.87
2018-07-20T11:59:27.183Z,1.92
2018-07-20T12:01:55.276Z,2.05
2018-07-20T12:04:23.271Z,1.80
2018-07-20T12:06:51.315Z,2.05
2018-07-20T12:09:19.348Z,3.50
2018-07-20T12:11:47.412Z,1.90
2018-07-20T12:14:15.445Z,2.10
2018-07-20T12:16:43.492Z,2.20
2018-07-20T12:19:11.555Z,1.90
2018-07-20T12:21:39.597Z,1.77
2018-07-20T12:24:07.632Z,2.10
2018-07-20T12:26:35.678Z,1.98
2018-07-20T12:29:03.744Z,2.10
2018-07-20T12:31:31.784Z,2.00
2018-07-20T12:33:59.804Z,2.60
2018-07-20T12:36:27.851Z,2.40
2018-07-20T12:38:55.671Z,3.58
2018-07-20T12:41:23.720Z,3.47
2018-07-20T12:43:51.759Z,2.87
2018-07-20T12:46:19.823Z,2.30
2018-07-20T12:48:47.840Z,2.10
2018-07-20T12:51:15.880Z,3.90
2018-07-20T12:53:43.958Z,3.20
2018-07-20T12:56:12.012Z,1.95
2018-07-20T12:58:40.151Z,2.40
2018-07-20T13:01:08.139Z,2.30
2018-07-20T13:03:36.176Z,4.70
2018-07-20T13:06:04.240Z,3.50
2018-07-20T13:08:32.267Z,3.08
2018-07-20T13:11:00.356Z,2.80
2018-07-20T13:13:28.368Z,5.20
2018-07-20T13:15:56.411Z,3.00
2018-07-20T13:18:24.437Z,3.72
2018-07-20T13:20:52.291Z,6.85
2018-07-20T13:23:20.116Z,3.08
2018-07-20T13:25:48.175Z,2.80
2018-07-20T13:28:16.213Z,3.15
2018-07-20T13:30:44.767Z,3.20
2018-07-20T13:33:12.832Z,3.42
2018-07-20T13:35:40.857Z,3.58
2018-07-20T13:38:08.918Z,3.72
2018-07-20T13:40:36.963Z,4.40
2018-07-20T13:43:05.000Z,6.30
2018-07-20T13:45:33.024Z,3.70
2018-07-20T13:48:01.040Z,7.22
2018-07-20T13:50:29.064Z,5.42
2018-07-20T13:52:57.170Z,4.33
2018-07-20T13:55:25.184Z,4.70
2018-07-20T13:57:53.416Z,4.00
2018-07-20T14:00:21.433Z,3.33
2018-07-20T14:02:49.468Z,3.17
2018-07-20T14:05:17.533Z,3.40
2018-07-20T14:07:45.591Z,3.55
2018-07-20T14:10:13.663Z,3.10
2018-07-20T14:12:41.699Z,5.55
2018-07-20T14:15:09.748Z,4.42
2018-07-20T14:17:37.583Z,3.52
2018-07-20T14:20:05.670Z,5.03
2018-07-20T14:22:34.429Z,5.65
2018-07-20T14:25:02.452Z,5.15
2018-07-20T14:27:30.488Z,4.50
2018-07-20T14:29:58.536Z,3.90
2018-07-20T14:32:26.564Z,4.00
2018-07-20T14:34:54.597Z,3.47
2018-07-20T14:37:22.628Z,3.50
2018-07-20T14:39:50.714Z,3.77
2018-07-20T14:42:18.794Z,3.60
2018-07-20T14:44:46.832Z,5.60
2018-07-20T14:47:14.869Z,4.30
2018-07-20T14:49:42.899Z,4.85
2018-07-20T14:52:10.948Z,3.58
2018-07-20T14:54:39.011Z,4.20
2018-07-20T14:57:07.045Z,4.60
2018-07-20T14:59:35.117Z,4.08
2018-07-20T15:02:03.167Z,3.62
2018-07-20T15:04:31.200Z,3.70
2018-07-20T15:06:59.281Z,4.87
2018-07-20T15:09:27.313Z,7.10
2018-07-20T15:11:55.170Z,3.60
2018-07-20T15:14:23.059Z,4.60
2018-07-20T15:16:51.132Z,4.60
2018-07-20T15:19:19.151Z,4.92
2018-07-20T15:21:47.227Z,4.50
2018-07-20T15:24:15.261Z,3.70
2018-07-20T15:26:43.280Z,3.75
2018-07-20T15:29:11.304Z,4.70
2018-07-20T15:31:39.336Z,4.30
2018-07-20T15:34:07.165Z,4.42
2018-07-20T15:36:35.178Z,4.78
2018-07-20T15:39:03.292Z,4.67
2018-07-20T15:41:31.336Z,5.10
2018-07-20T15:43:59.389Z,4.00
2018-07-20T15:46:27.306Z,3.70
2018-07-20T15:48:55.254Z,4.42
2018-07-20T15:51:31.578Z,4.92
2018-07-20T15:53:51.367Z,4.17
2018-07-20T15:56:19.179Z,3.65
2018-07-20T15:58:47.196Z,3.90
2018-07-20T16:01:15.237Z,4.35
2018-07-20T16:03:43.258Z,6.30
2018-07-20T16:06:11.330Z,4.17
2018-07-20T16:08:39.401Z,3.83
2018-07-20T16:11:07.426Z,3.83
2018-07-20T16:13:35.452Z,4.10
2018-07-20T16:16:03.508Z,4.00
2018-07-20T16:18:31.524Z,4.00
2018-07-20T16:20:59.560Z,3.80
2018-07-20T16:23:27.593Z,4.55
2018-07-20T16:25:55.677Z,4.30
2018-07-20T16:28:23.644Z,4.90
2018-07-20T16:30:51.673Z,6.22
2018-07-20T16:33:19.738Z,6.00
2018-07-20T16:35:47.814Z,5.20
2018-07-20T16:38:15.796Z,7.15
2018-07-20T16:40:43.812Z,4.80
2018-07-20T16:43:11.828Z,4.15
2018-07-20T16:45:39.889Z,6.40
2018-07-20T16:48:07.924Z,6.92
2018-07-20T16:50:35.955Z,5.12
2018-07-20T16:53:04.011Z,8.30
2018-07-20T16:55:32.040Z,6.30
2018-07-20T16:58:01.355Z,6.27
2018-07-20T17:00:30.319Z,4.47
2018-07-20T17:02:59.315Z,4.20
2018-07-20T17:05:28.578Z,4.33
2018-07-20T17:07:57.504Z,4.15
2018-07-20T17:10:26.544Z,4.75
2018-07-20T17:12:55.594Z,7.42
2018-07-20T17:15:24.482Z,4.60
2018-07-20T17:17:53.197Z,3.70
2018-07-20T17:20:22.144Z,4.40
2018-07-20T17:22:51.806Z,5.20
2018-07-20T17:25:19.664Z,4.22
2018-07-20T17:27:47.749Z,6.10
2018-07-20T17:30:15.760Z,5.47
2018-07-20T17:35:18.288Z,4.40
2018-07-20T17:37:46.320Z,3.33
2018-07-20T17:40:14.349Z,3.90
2018-07-20T17:42:42.475Z,5.42
2018-07-20T17:45:10.523Z,4.60
2018-07-20T17:47:38.521Z,7.20
2018-07-20T17:50:06.548Z,5.80
2018-07-20T17:52:34.642Z,5.30
2018-07-20T17:55:02.668Z,7.67
2018-07-20T17:57:30.679Z,8.27
2018-07-20T17:59:58.731Z,4.20
2018-07-20T18:02:27.660Z,5.90
2018-07-20T18:04:55.643Z,5.70
2018-07-20T18:07:23.672Z,5.42
2018-07-20T18:09:51.718Z,5.00
2018-07-20T18:12:19.745Z,5.97
2018-07-20T18:14:47.765Z,6.10
2018-07-20T18:17:15.593Z,5.03
2018-07-20T18:19:43.680Z,4.60
2018-07-20T18:22:11.701Z,5.00
2018-07-20T18:24:39.747Z,7.25
2018-07-20T18:27:07.801Z,4.65
2018-07-20T18:29:35.776Z,7.83
2018-07-20T18:32:03.815Z,4.70
2018-07-20T18:34:31.856Z,6.60
2018-07-20T18:36:59.919Z,7.55
2018-07-20T18:39:27.952Z,6.83
2018-07-20T18:41:55.971Z,7.72
2018-07-20T18:44:24.020Z,5.83
2018-07-20T18:46:52.060Z,9.53
2018-07-20T18:49:20.104Z,6.65
2018-07-20T18:51:48.201Z,6.92
2018-07-20T18:54:16.266Z,8.30
2018-07-20T18:56:44.283Z,6.90
2018-07-20T18:59:12.316Z,7.00
2018-07-20T19:01:40.352Z,7.67
2018-07-20T19:04:08.388Z,6.70
2018-07-20T19:06:36.415Z,7.60
2018-07-20T19:09:07.412Z,8.00
2018-07-20T19:11:35.440Z,6.87
2018-07-20T19:14:03.456Z,9.43
2018-07-20T19:16:31.532Z,7.17
2018-07-20T19:18:59.591Z,5.40
2018-07-20T19:21:28.445Z,5.67
2018-07-20T19:23:56.479Z,5.20
2018-07-20T19:26:24.528Z,7.95
2018-07-20T19:28:52.565Z,5.83
2018-07-20T19:31:20.627Z,4.87
2018-07-20T19:33:48.658Z,4.55
2018-07-20T19:36:16.704Z,4.95
2018-07-20T19:38:44.740Z,5.45
2018-07-20T19:41:12.768Z,6.30
2018-07-20T19:43:40.796Z,7.50
2018-07-20T19:46:08.819Z,5.90
2018-07-20T19:48:36.849Z,6.53
2018-07-20T19:51:04.904Z,6.75
2018-07-20T19:53:32.912Z,6.80
2018-07-20T19:56:00.932Z,4.72
2018-07-20T19:58:28.960Z,6.10
2018-07-20T20:00:56.998Z,7.73
2018-07-20T20:03:25.068Z,6.90
2018-07-20T20:05:53.108Z,6.10
2018-07-20T20:08:21.155Z,7.78
2018-07-20T20:10:49.185Z,7.10
2018-07-20T20:13:17.353Z,6.65
2018-07-20T20:15:45.379Z,6.28
2018-07-20T20:18:13.435Z,6.05
2018-07-20T20:20:41.491Z,6.15
2018-07-20T20:23:09.553Z,6.40
2018-07-20T20:25:37.599Z,6.03
2018-07-20T20:28:05.663Z,7.58
2018-07-20T20:30:33.724Z,6.03
2018-07-20T20:33:01.788Z,6.62
2018-07-20T20:35:29.848Z,6.50
2018-07-20T20:37:57.700Z,5.73
2018-07-20T20:40:25.732Z,6.60
2018-07-20T20:42:53.947Z,6.23
2018-07-20T20:45:21.984Z,9.25
2018-07-20T20:47:50.050Z,6.62
2018-07-20T20:50:18.049Z,9.23
2018-07-20T20:52:46.100Z,5.45
2018-07-20T20:55:14.289Z,6.00
2018-07-20T20:57:42.345Z,5.55
2018-07-20T21:00:10.540Z,6.70
2018-07-20T21:02:38.595Z,8.00
2018-07-20T21:05:06.773Z,6.95
2018-07-20T21:07:34.825Z,6.90
2018-07-20T21:10:03.156Z,6.50
2018-07-20T21:12:30.996Z,6.40
2018-07-20T21:14:59.056Z,5.55
2018-07-20T21:17:27.128Z,7.03
2018-07-20T21:19:55.189Z,6.00
2018-07-20T21:22:23.247Z,8.50
2018-07-20T21:24:51.277Z,6.85
2018-07-20T21:27:19.312Z,8.18
2018-07-20T21:29:47.403Z,7.83
2018-07-20T21:32:15.267Z,9.05
2018-07-20T21:34:43.317Z,6.50
2018-07-20T21:37:11.391Z,7.10
2018-07-20T21:39:39.503Z,7.22
2018-07-20T21:42:07.645Z,6.75
2018-07-20T21:44:35.684Z,7.10
2018-07-20T21:47:03.720Z,6.25
2018-07-20T21:49:31.751Z,7.28
2018-07-20T21:52:00.012Z,6.60
2018-07-20T21:54:28.154Z,7.08
2018-07-20T21:56:56.171Z,6.08
2018-07-20T21:59:24.209Z,5.70
2018-07-20T22:01:52.237Z,6.00
2018-07-20T22:04:20.264Z,5.70
2018-07-20T22:06:48.297Z,5.65
2018-07-20T22:09:16.332Z,7.22
2018-07-20T22:11:44.176Z,6.12
2018-07-20T22:14:12.274Z,7.30
2018-07-20T22:16:40.119Z,6.50
2018-07-20T22:19:08.153Z,5.30
2018-07-20T22:21:36.186Z,5.80
2018-07-20T22:24:04.015Z,6.33
2018-07-20T22:26:32.077Z,5.67
2018-07-20T22:29:00.113Z,6.08
2018-07-20T22:31:28.180Z,7.50
2018-07-20T22:33:56.204Z,7.53
2018-07-20T22:36:24.232Z,6.60
2018-07-20T22:38:52.256Z,5.53
2018-07-20T22:41:20.103Z,6.40
2018-07-20T22:43:48.151Z,7.90
2018-07-20T22:46:16.227Z,6.20
2018-07-20T22:48:44.280Z,6.17
2018-07-20T22:51:12.307Z,6.80
2018-07-20T22:53:40.340Z,7.00
2018-07-20T22:56:08.513Z,6.47
2018-07-20T22:58:36.539Z,6.40
2018-07-20T23:01:04.576Z,8.13
2018-07-20T23:03:32.620Z,7.30
2018-07-20T23:06:00.656Z,6.65
2018-07-20T23:08:28.684Z,6.28
2018-07-20T23:10:56.716Z,6.80
2018-07-20T23:13:24.753Z,6.80
2018-07-20T23:15:52.762Z,8.63
2018-07-20T23:18:20.789Z,6.60
2018-07-20T23:20:48.812Z,7.60
2018-07-20T23:23:16.909Z,7.30
2018-07-20T23:25:44.924Z,6.65
2018-07-20T23:28:12.996Z,6.60
2018-07-20T23:30:41.036Z,6.83
2018-07-20T23:33:08.879Z,7.95
2018-07-20T23:35:36.905Z,7.08
2018-07-20T23:38:05.099Z,6.00
2018-07-20T23:40:33.151Z,7.20
2018-07-20T23:43:01.196Z,7.22
2018-07-20T23:45:29.212Z,7.83
2018-07-20T23:47:57.391Z,10.37
2018-07-20T23:50:25.400Z,6.30
2018-07-20T23:52:53.440Z,6.10
2018-07-20T23:55:21.480Z,7.40
2018-07-20T23:57:49.515Z,7.85
